Time;durP1;ratioP1;P1;durP2;ratioP2;P2;SDS_P1;SDS_P2;PMS_P1;PMS_P2;Temp;Humidity;BMP_temperature;BMP_pressure;BME280_temperature;BME280_humidity;BME280_pressure;Samples;Min_cycle;Max_cycle;Signal;HPM_P1;HPM_P2
2023/07/24 00:02:05;;;;;;;8.50;6.03;;;;;;;24.81;60.86;100212.69;5107200;28;20051;-23
2023/07/24 00:04:31;;;;;;;9.20;6.00;;;;;;;25.12;59.72;100211.13;5106918;28;20730;-23
2023/07/24 00:06:57;;;;;;;9.85;6.00;;;;;;;25.16;62.42;100206.63;5107421;28;20590;-23
2023/07/24 00:09:22;;;;;;;10.75;6.18;;;;;;;24.77;63.88;100198.06;5107537;28;20641;-24
2023/07/24 00:11:47;;;;;;;9.48;6.03;;;;;;;25.06;61.69;100205.78;5107105;28;20028;-24
2023/07/24 00:14:14;;;;;;;9.88;7.20;;;;;;;25.28;62.39;100200.63;5107528;28;20027;-23
2023/07/24 00:16:39;;;;;;;9.40;6.65;;;;;;;24.64;63.84;100205.19;5107329;28;20035;-24
2023/07/24 00:19:05;;;;;;;9.50;6.50;;;;;;;24.76;65.63;100201.88;5107150;28;20028;-24
2023/07/24 00:21:30;;;;;;;12.75;6.95;;;;;;;25.35;62.69;100214.63;5107774;28;20411;-24
2023/07/24 00:23:58;;;;;;;9.30;6.07;;;;;;;25.33;63.69;100208.66;5107279;28;20502;-26
2023/07/24 00:26:23;;;;;;;;;;;;;;;25.14;64.25;100208.88;5107908;28;20038;-23
2023/07/24 00:28:49;;;;;;;13.10;7.10;;;;;;;25.41;62.63;100200.50;5106919;28;19908;-24
2023/07/24 00:31:14;;;;;;;11.32;6.93;;;;;;;25.16;64.87;100201.97;5106995;28;20707;-23
2023/07/24 00:33:40;;;;;;;10.20;7.32;;;;;;;24.80;66.25;100200.16;5107215;28;20085;-24
2023/07/24 00:36:05;;;;;;;13.55;7.40;;;;;;;24.65;68.85;100192.38;5106733;28;20024;-24
2023/07/24 00:38:30;;;;;;;11.55;7.97;;;;;;;24.64;68.09;100199.75;5107059;28;20039;-23
2023/07/24 00:40:56;;;;;;;11.88;6.78;;;;;;;24.78;67.24;100196.94;5106992;28;20436;-24
2023/07/24 00:43:21;;;;;;;11.43;7.45;;;;;;;24.86;68.09;100195.38;5106818;28;20043;-23
2023/07/24 00:45:48;;;;;;;9.50;7.03;;;;;;;24.76;68.82;100203.81;5106890;28;20703;-23
2023/07/24 00:48:16;;;;;;;10.18;7.07;;;;;;;24.96;67.93;100197.84;5106437;28;20028;-23
2023/07/24 00:50:45;;;;;;;9.88;6.95;;;;;;;24.65;69.70;100195.88;5106639;28;20024;-24
2023/07/24 00:53:11;;;;;;;11.05;6.97;;;;;;;24.80;67.99;100197.44;5106963;28;20031;-23
2023/07/24 00:55:38;;;;;;;11.95;6.95;;;;;;;24.36;71.83;100192.75;5106344;28;20168;-24
2023/07/24 00:58:03;;;;;;;10.82;7.00;;;;;;;24.62;71.02;100195.69;5106834;28;20078;-24
2023/07/24 01:00:29;;;;;;;10.93;7.03;;;;;;;24.66;70.75;100199.41;5106482;27;20043;-24
2023/07/24 01:02:56;;;;;;;9.38;6.10;;;;;;;24.75;69.33;100194.03;5106007;28;20046;-24
2023/07/24 01:05:24;;;;;;;11.82;7.38;;;;;;;24.34;71.56;100195.00;5106918;28;20032;-23
2023/07/24 01:07:50;;;;;;;11.55;6.88;;;;;;;24.24;72.85;100190.56;5106327;28;20035;-23
2023/07/24 01:10:16;;;;;;;12.00;7.05;;;;;;;24.32;72.49;100180.88;5106512;28;20032;-24
2023/07/24 01:12:58;;;;;;;11.38;6.75;;;;;;;24.54;70.73;100171.91;5105981;28;20077;-24
2023/07/24 01:15:37;;;;;;;10.95;7.35;;;;;;;24.31;72.48;100169.13;5104756;28;20051;-24
2023/07/24 01:18:09;;;;;;;12.50;7.45;;;;;;;24.52;72.50;100185.03;5106657;28;20028;-25
2023/07/24 01:20:37;;;;;;;11.32;7.35;;;;;;;24.20;73.94;100190.38;5106197;28;20031;-24
2023/07/24 01:23:08;;;;;;;11.00;7.53;;;;;;;24.68;70.94;100199.91;5105818;28;20031;-24
2023/07/24 01:25:37;;;;;;;12.38;7.75;;;;;;;24.29;75.02;100179.53;5105615;28;20081;-26
2023/07/24 01:28:09;;;;;;;12.35;7.40;;;;;;;24.08;76.11;100192.81;5105603;27;20034;-24
2023/07/24 01:30:34;;;;;;;11.15;7.72;;;;;;;24.17;75.32;100190.19;5105522;28;20054;-24
2023/07/24 01:33:00;;;;;;;12.25;8.35;;;;;;;24.31;75.11;100195.59;5105631;28;20428;-24
2023/07/24 01:35:27;;;;;;;12.18;8.45;;;;;;;24.05;75.94;100194.25;5105981;28;20023;-24
2023/07/24 01:37:55;;;;;;;13.60;8.43;;;;;;;24.24;74.92;100191.38;5105581;28;20023;-22
2023/07/24 01:40:22;;;;;;;13.55;7.22;;;;;;;24.78;71.89;100196.94;5105504;28;20035;-22
2023/07/24 01:42:49;;;;;;;10.70;7.43;;;;;;;24.50;73.91;100199.00;5105564;28;20553;-23
2023/07/24 01:45:15;;;;;;;12.40;7.25;;;;;;;24.71;71.88;100191.13;5105446;28;20066;-22
2023/07/24 01:47:40;;;;;;;11.15;7.85;;;;;;;24.74;72.20;100198.66;5105744;28;20059;-22
2023/07/24 01:50:06;;;;;;;12.13;8.27;;;;;;;24.51;74.26;100191.63;5105441;28;20034;-22
2023/07/24 01:52:32;;;;;;;13.68;7.78;;;;;;;24.36;74.81;100176.41;5105085;28;20114;-23
2023/07/24 01:54:57;;;;;;;12.30;7.93;;;;;;;24.48;74.25;100190.28;5105417;27;20194;-23
2023/07/24 01:57:23;;;;;;;9.73;6.82;;;;;;;24.67;72.37;100199.13;5105035;28;20027;-23
2023/07/24 01:59:48;;;;;;;11.45;8.25;;;;;;;24.52;73.74;100206.84;5105094;28;20070;-23
2023/07/24 02:02:14;;;;;;;11.52;8.00;;;;;;;24.70;72.73;100208.59;5105490;28;20016;-23
2023/07/24 02:04:39;;;;;;;13.13;7.93;;;;;;;24.51;74.52;100205.25;5105361;28;20042;-23
2023/07/24 02:07:08;;;;;;;13.23;8.18;;;;;;;24.38;74.94;100204.97;5104818;28;20058;-24
2023/07/24 02:09:34;;;;;;;12.32;7.35;;;;;;;24.70;73.56;100196.88;5105143;28;20108;-23
2023/07/24 02:12:02;;;;;;;15.20;8.18;;;;;;;24.65;73.46;100197.81;5105662;28;20027;-23
2023/07/24 02:14:27;;;;;;;10.18;7.28;;;;;;;24.89;72.70;100204.84;5105327;28;20737;-24
2023/07/24 02:16:53;;;;;;;11.48;7.68;;;;;;;25.15;71.40;100208.56;5105038;28;20031;-24
2023/07/24 02:19:19;;;;;;;12.80;7.97;;;;;;;24.20;76.05;100189.56;5105192;28;20050;-23
2023/07/24 02:21:44;;;;;;;13.20;8.38;;;;;;;24.52;75.23;100209.56;5104486;28;20092;-24
2023/07/24 02:24:09;;;;;;;13.38;7.65;;;;;;;24.66;74.57;100202.13;5104874;28;20440;-22
2023/07/24 02:26:35;;;;;;;13.45;7.82;;;;;;;24.49;74.75;100199.28;5104475;28;20051;-23
2023/07/24 02:29:00;;;;;;;14.60;8.10;;;;;;;24.75;74.26;100194.84;5104800;28;20036;-24
2023/07/24 02:31:26;;;;;;;12.35;7.38;;;;;;;24.54;74.73;100193.72;5105042;28;20076;-22
2023/07/24 02:33:51;;;;;;;11.45;8.18;;;;;;;24.42;77.48;100195.06;5104551;28;20397;-22
2023/07/24 02:36:17;;;;;;;13.77;8.70;;;;;;;24.51;76.37;100207.97;5105033;28;20034;-22
2023/07/24 02:38:42;;;;;;;14.32;7.82;;;;;;;24.90;74.19;100206.47;5104689;28;20024;-23
2023/07/24 02:41:07;;;;;;;11.82;7.35;;;;;;;25.04;73.55;100207.22;5104376;28;20055;-23
2023/07/24 02:43:33;;;;;;;14.57;9.32;;;;;;;24.70;75.53;100205.84;5104747;28;20035;-22
2023/07/24 02:46:02;;;;;;;13.98;8.95;;;;;;;24.91;74.97;100208.91;5104646;28;20034;-23
2023/07/24 02:48:32;;;;;;;10.75;8.80;;;;;;;24.93;76.34;100216.75;5104775;28;20034;-23
2023/07/24 02:50:59;;;;;;;11.70;8.43;;;;;;;25.02;74.17;100217.63;5105010;28;20051;-22
2023/07/24 02:53:30;;;;;;;10.55;7.68;;;;;;;25.12;73.74;100216.56;5104309;28;20024;-23
2023/07/24 02:55:55;;;;;;;12.98;8.75;;;;;;;24.49;78.84;100207.44;5104704;28;20057;-23
2023/07/24 02:58:23;;;;;;;11.85;8.57;;;;;;;25.00;75.66;100219.88;5104218;28;20023;-22
2023/07/24 03:00:48;;;;;;;13.27;9.25;;;;;;;25.10;75.29;100216.88;5103902;28;20039;-23
2023/07/24 03:03:14;;;;;;;13.30;9.27;;;;;;;25.09;74.46;100211.72;5104684;28;20035;-24
2023/07/24 03:05:42;;;;;;;14.38;9.93;;;;;;;24.58;78.58;100194.69;5104213;28;20027;-22
2023/07/24 03:08:07;;;;;;;16.73;9.43;;;;;;;24.51;79.47;100206.03;5104474;28;20092;-22
2023/07/24 03:10:32;;;;;;;15.88;9.88;;;;;;;24.75;76.49;100208.47;5104191;28;20457;-23
2023/07/24 03:13:00;;;;;;;15.68;10.00;;;;;;;25.23;76.93;100210.56;5104697;28;20024;-24
2023/07/24 03:15:25;;;;;;;12.63;9.70;;;;;;;25.15;75.94;100214.03;5104510;28;20044;-23
2023/07/24 03:17:51;;;;;;;13.50;10.68;;;;;;;24.95;79.60;100209.09;5104203;28;20080;-23
2023/07/24 03:20:18;;;;;;;13.95;10.80;;;;;;;25.11;77.06;100213.03;5104365;28;20415;-26
2023/07/24 03:22:44;;;;;;;15.82;10.27;;;;;;;25.26;76.67;100215.38;5104294;28;20031;-23
2023/07/24 03:25:10;;;;;;;15.23;10.32;;;;;;;25.12;76.98;100206.44;5103854;28;20043;-23
2023/07/24 03:27:35;;;;;;;13.45;9.88;;;;;;;25.16;76.82;100204.72;5104513;28;20023;-24
2023/07/24 03:30:03;;;;;;;16.05;10.30;;;;;;;25.34;75.88;100210.28;5104023;28;20023;-23
2023/07/24 03:32:28;;;;;;;;;;;;;;;25.26;78.31;100211.84;5104775;28;20062;-27
2023/07/24 03:34:53;;;;;;;16.03;10.80;;;;;;;25.01;78.84;100205.13;5104630;28;19955;-24
2023/07/24 03:37:19;;;;;;;15.60;10.18;;;;;;;25.00;78.76;100195.31;5104207;28;20674;-23
2023/07/24 03:39:47;;;;;;;14.38;9.65;;;;;;;25.18;76.42;100194.28;5108113;28;20496;-23
2023/07/24 03:42:14;;;;;;;;;;;;;;;25.37;77.70;100196.78;5108517;28;20057;-23
2023/07/24 03:44:40;;;;;;;;;;;;;;;25.15;78.38;100197.66;5108250;28;19938;-24
2023/07/24 03:47:05;;;;;;;20.90;11.48;;;;;;;25.03;79.51;100205.63;5108073;28;20304;-25
2023/07/24 03:49:31;;;;;;;15.82;11.15;;;;;;;25.00;80.91;100195.31;5107643;28;20462;-23
2023/07/24 03:51:56;;;;;;;17.00;10.98;;;;;;;25.25;77.69;100191.94;5107880;28;20042;-23
2023/07/24 03:54:22;;;;;;;16.83;10.27;;;;;;;25.19;78.53;100193.19;5107299;28;20039;-23
2023/07/24 03:56:47;;;;;;;16.10;11.18;;;;;;;25.10;79.42;100200.50;5107874;28;20024;-23
2023/07/24 03:59:15;;;;;;;19.08;10.95;;;;;;;24.91;81.15;100198.00;5107368;28;20130;-24
2023/07/24 04:01:40;;;;;;;19.65;10.63;;;;;;;24.75;81.77;100194.84;5107510;28;20033;-24
2023/07/24 04:04:06;;;;;;;15.32;11.30;;;;;;;25.25;78.71;100197.41;5107805;28;20420;-25
2023/07/24 04:06:31;;;;;;;15.23;11.00;;;;;;;25.47;78.63;100195.72;5107492;28;20444;-24
2023/07/24 04:08:57;;;;;;;15.55;10.57;;;;;;;25.65;77.31;100205.56;5107616;28;20034;-24
2023/07/24 04:11:22;;;;;;;14.23;10.52;;;;;;;25.59;77.37;100201.38;5107703;28;20427;-24
2023/07/24 04:13:48;;;;;;;16.15;11.40;;;;;;;25.64;77.75;100214.06;5107194;28;20016;-24
2023/07/24 04:16:13;;;;;;;15.52;11.50;;;;;;;25.46;78.41;100213.22;5107377;27;20084;-24
2023/07/24 04:18:38;;;;;;;18.48;12.63;;;;;;;25.69;77.11;100213.16;5107310;28;20416;-24
2023/07/24 04:21:04;;;;;;;19.67;13.07;;;;;;;25.49;78.78;100218.06;5107285;28;20092;-24
2023/07/24 04:23:29;;;;;;;22.50;14.75;;;;;;;25.30;80.15;100226.47;5107413;28;20404;-24
2023/07/24 04:25:55;;;;;;;12.75;11.10;;;;;;;25.27;77.16;100218.91;5107115;28;20035;-24
2023/07/24 04:28:22;;;;;;;18.45;11.23;;;;;;;25.30;76.63;100220.22;5107144;28;20063;-24
2023/07/24 04:30:48;;;;;;;;;;;;;;;25.30;75.74;100214.78;5107542;28;20066;-25
2023/07/24 04:33:13;;;;;;;15.60;10.37;;;;;;;25.42;74.82;100217.72;5106668;28;19951;-24
2023/07/24 04:35:38;;;;;;;12.90;9.98;;;;;;;25.46;74.72;100224.16;5107236;28;20269;-24
2023/07/24 04:38:04;;;;;;;16.23;10.73;;;;;;;25.59;74.33;100231.41;5106944;28;20056;-24
2023/07/24 04:40:32;;;;;;;15.02;10.85;;;;;;;25.28;75.59;100222.47;5107089;28;20039;-24
2023/07/24 04:42:57;;;;;;;15.18;10.57;;;;;;;25.47;75.48;100228.47;5106613;28;20028;-24
2023/07/24 04:45:23;;;;;;;16.38;11.18;;;;;;;25.47;75.03;100231.22;5106594;28;20023;-24
2023/07/24 04:47:48;;;;;;;14.90;10.45;;;;;;;25.70;75.32;100231.94;5106977;28;20028;-24
2023/07/24 04:50:14;;;;;;;16.17;12.15;;;;;;;25.27;76.69;100232.56;5105775;28;20221;-24
2023/07/24 04:52:39;;;;;;;19.52;12.95;;;;;;;25.26;77.03;100226.31;5106354;28;20408;-24
2023/07/24 04:55:08;;;;;;;24.20;14.45;;;;;;;24.77;79.99;100219.09;5106706;28;20031;-24
2023/07/24 04:57:33;;;;;;;19.33;14.00;;;;;;;24.44;81.88;100213.84;5106738;28;20065;-24
2023/07/24 04:59:59;;;;;;;19.75;13.43;;;;;;;24.78;79.90;100229.66;5106518;28;20039;-25
2023/07/24 05:02:24;;;;;;;20.42;14.20;;;;;;;24.83;80.16;100231.47;5106306;28;20470;-25
2023/07/24 05:04:50;;;;;;;20.73;14.77;;;;;;;25.03;79.42;100236.44;5106213;28;20908;-25
2023/07/24 05:07:15;;;;;;;21.17;16.13;;;;;;;24.82;80.89;100222.47;5106516;28;20118;-24
2023/07/24 05:09:40;;;;;;;22.63;18.58;;;;;;;25.01;81.03;100232.41;5106492;28;20028;-24
2023/07/24 05:12:06;;;;;;;26.17;17.42;;;;;;;24.98;80.97;100231.09;5106836;28;20413;-24
2023/07/24 05:14:32;;;;;;;23.65;16.90;;;;;;;24.85;82.93;100230.03;5105677;28;20074;-26
2023/07/24 05:16:57;;;;;;;26.30;18.27;;;;;;;25.05;81.25;100247.03;5106325;28;20034;-23
2023/07/24 05:19:22;;;;;;;27.60;21.40;;;;;;;25.19;80.88;100242.31;5106041;28;20039;-23
2023/07/24 05:21:48;;;;;;;25.38;20.02;;;;;;;25.42;79.54;100245.81;5105807;28;20024;-23
2023/07/24 05:24:13;;;;;;;25.65;19.45;;;;;;;25.17;81.78;100243.72;5106046;28;20023;-23
2023/07/24 05:26:38;;;;;;;26.48;19.42;;;;;;;25.32;80.60;100250.75;5105746;28;20016;-24
2023/07/24 05:29:04;;;;;;;24.10;19.23;;;;;;;25.45;79.61;100242.44;5106038;28;20027;-23
2023/07/24 05:31:29;;;;;;;25.75;19.92;;;;;;;25.78;78.10;100244.00;5105731;28;20085;-23
2023/07/24 05:33:55;;;;;;;27.83;21.20;;;;;;;26.00;75.96;100254.88;5105084;28;20028;-23
2023/07/24 05:36:20;;;;;;;29.45;21.10;;;;;;;25.74;77.16;100262.94;5106127;28;20439;-23
2023/07/24 05:38:45;;;;;;;44.53;33.85;;;;;;;25.85;76.96;100264.28;5105885;28;20023;-23
2023/07/24 05:41:11;;;;;;;27.95;21.45;;;;;;;25.91;76.65;100269.63;5105548;28;20436;-24
2023/07/24 05:43:50;;;;;;;25.27;19.60;;;;;;;25.55;78.62;100263.22;5106103;28;20416;-23
2023/07/24 05:46:15;;;;;;;35.05;27.33;;;;;;;25.87;77.09;100261.25;5105498;28;20732;-23
2023/07/24 05:48:41;;;;;;;29.73;21.35;;;;;;;25.86;75.93;100270.56;5096525;28;20024;-23
2023/07/24 05:51:06;;;;;;;28.08;20.27;;;;;;;25.83;76.86;100266.53;5102309;28;20031;-23
2023/07/24 05:53:31;;;;;;;56.30;49.90;;;;;;;25.79;76.70;100270.22;5105379;28;20416;-23
2023/07/24 05:55:59;;;;;;;29.38;21.05;;;;;;;25.81;76.55;100259.78;5105340;28;20030;-23
2023/07/24 05:58:24;;;;;;;26.33;20.85;;;;;;;26.05;75.28;100265.66;5105143;28;20049;-24
2023/07/24 06:00:50;;;;;;;26.65;19.48;;;;;;;26.27;73.45;100269.38;5104602;28;20478;-25
2023/07/24 06:03:15;;;;;;;24.42;19.40;;;;;;;26.06;75.28;100266.47;5105410;28;20427;-23
2023/07/24 06:05:41;;;;;;;33.75;27.55;;;;;;;26.30;74.14;100262.50;5104798;28;20049;-23
2023/07/24 06:08:08;;;;;;;24.58;20.38;;;;;;;26.37;73.31;100258.16;5105258;28;20042;-23
2023/07/24 06:10:34;;;;;;;25.33;20.05;;;;;;;26.61;71.75;100257.72;5105012;28;20029;-24
2023/07/24 06:12:59;;;;;;;25.45;20.42;;;;;;;26.76;71.17;100255.59;5105422;28;20032;-23
2023/07/24 06:15:25;;;;;;;22.05;18.48;;;;;;;26.66;71.08;100254.00;5105208;28;20031;-23
2023/07/24 06:17:50;;;;;;;26.02;19.90;;;;;;;26.49;72.98;100253.97;5104495;28;20031;-23
2023/07/24 06:20:15;;;;;;;22.55;18.77;;;;;;;26.41;72.49;100248.19;5105071;28;20032;-24
2023/07/24 06:22:41;;;;;;;24.40;20.77;;;;;;;26.51;72.01;100241.59;5104144;28;20020;-23
2023/07/24 06:25:07;;;;;;;24.45;19.75;;;;;;;26.73;72.34;100240.66;5105105;28;20027;-23
2023/07/24 06:27:32;;;;;;;24.48;19.90;;;;;;;26.62;73.49;100236.63;5105041;28;20114;-23
2023/07/24 06:29:58;;;;;;;22.50;18.17;;;;;;;26.90;71.74;100230.81;5104163;28;20023;-23
2023/07/24 06:32:23;;;;;;;26.63;20.70;;;;;;;27.02;71.36;100236.41;5104956;28;20020;-23
2023/07/24 06:34:48;;;;;;;27.15;22.38;;;;;;;26.86;72.09;100236.13;5104723;28;20024;-24
2023/07/24 06:37:14;;;;;;;51.08;41.70;;;;;;;26.50;74.52;100236.44;5105117;28;20032;-23
2023/07/24 06:39:39;;;;;;;33.45;26.00;;;;;;;26.95;72.70;100236.09;5104542;28;20031;-23
2023/07/24 06:42:05;;;;;;;26.77;19.50;;;;;;;27.00;71.31;100236.75;5104869;28;20757;-24
2023/07/24 06:44:30;;;;;;;24.13;20.73;;;;;;;27.11;71.10;100228.97;5104829;28;20032;-25
2023/07/24 06:46:59;;;;;;;24.33;20.67;;;;;;;26.91;71.28;100233.22;5104447;28;20311;-23
2023/07/24 06:49:24;;;;;;;23.80;20.63;;;;;;;26.90;71.75;100222.59;5104572;28;20054;-23
2023/07/24 06:51:49;;;;;;;30.15;21.92;;;;;;;27.15;71.81;100227.19;5104785;28;20024;-23
2023/07/24 06:54:15;;;;;;;26.95;21.00;;;;;;;27.36;71.46;100221.88;5104350;28;20023;-24
2023/07/24 06:56:40;;;;;;;22.48;17.27;;;;;;;27.53;68.92;100217.44;5103565;28;20557;-23
2023/07/24 06:59:05;;;;;;;21.85;19.17;;;;;;;27.34;69.54;100223.31;5103176;28;20027;-23
2023/07/24 07:01:31;;;;;;;24.13;18.35;;;;;;;27.31;70.66;100213.03;5103842;28;20042;-23
2023/07/24 07:03:56;;;;;;;23.17;18.33;;;;;;;27.12;71.48;100216.91;5105150;28;20032;-23
2023/07/24 07:06:22;;;;;;;20.20;17.67;;;;;;;27.37;70.50;100214.44;5104379;28;20050;-23
2023/07/24 07:08:47;;;;;;;20.73;16.75;;;;;;;27.32;69.97;100214.59;5104701;28;20743;-23
2023/07/24 07:11:13;;;;;;;21.13;16.95;;;;;;;27.39;69.72;100210.25;5103988;28;20027;-23
2023/07/24 07:13:38;;;;;;;18.33;14.50;;;;;;;27.58;68.68;100218.06;5106036;28;20038;-26
2023/07/24 07:16:04;;;;;;;20.33;15.60;;;;;;;27.91;66.72;100211.94;5108700;28;20020;-23
2023/07/24 07:18:29;;;;;;;18.10;14.05;;;;;;;27.88;67.01;100209.88;5108132;28;20472;-23
2023/07/24 07:20:55;;;;;;;17.70;14.27;;;;;;;27.76;67.96;100198.78;5108204;28;20028;-25
2023/07/24 07:23:24;;;;;;;16.90;13.20;;;;;;;27.97;66.94;100209.78;5108129;28;20036;-22
2023/07/24 07:25:51;;;;;;;16.45;13.27;;;;;;;28.13;65.60;100196.31;5108291;28;20027;-25
2023/07/24 07:28:16;;;;;;;19.02;15.27;;;;;;;28.13;65.92;100194.38;5108239;28;20084;-23
2023/07/24 07:30:42;;;;;;;16.45;13.82;;;;;;;28.26;66.64;100187.03;5107905;28;20035;-24
2023/07/24 07:33:08;;;;;;;19.38;12.98;;;;;;;28.34;65.35;100188.91;5107657;27;20076;-25
2023/07/24 07:35:39;;;;;;;20.63;13.50;;;;;;;28.68;65.38;100187.00;5108306;27;20027;-25
2023/07/24 07:38:06;;;;;;;18.83;13.10;;;;;;;28.57;64.71;100189.34;5107919;28;20032;-23
2023/07/24 07:40:32;;;;;;;15.25;12.80;;;;;;;28.82;64.71;100182.00;5107626;28;20030;-24
2023/07/24 07:42:58;;;;;;;18.20;12.60;;;;;;;29.23;61.80;100190.47;5107926;28;20081;-23
2023/07/24 07:45:24;;;;;;;15.95;12.85;;;;;;;29.32;61.00;100184.84;5107603;28;20427;-24
2023/07/24 07:47:50;;;;;;;15.10;12.43;;;;;;;29.57;59.63;100183.72;5107977;28;20117;-23
2023/07/24 07:50:15;;;;;;;15.75;12.23;;;;;;;29.57;60.42;100180.97;5107640;28;20024;-23
2023/07/24 07:52:41;;;;;;;17.80;12.55;;;;;;;29.53;61.78;100182.81;5108040;28;20512;-23
2023/07/24 07:55:07;;;;;;;15.38;11.55;;;;;;;29.55;59.98;100176.97;5107848;28;20110;-22
2023/07/24 07:57:36;;;;;;;14.90;11.75;;;;;;;29.85;59.94;100166.53;5107246;28;20138;-25
2023/07/24 08:00:02;;;;;;;13.75;10.55;;;;;;;29.72;59.12;100167.69;5107610;28;20515;-24
2023/07/24 08:02:28;;;;;;;14.83;11.87;;;;;;;29.61;59.38;100156.34;5107687;28;20027;-24
2023/07/24 08:48:43;;;;;;;13.73;9.60;;;;;;;31.31;46.76;100135.09;5107488;28;20160;-23
2023/07/24 08:51:10;;;;;;;12.25;9.10;;;;;;;31.61;46.29;100143.72;5106640;28;20024;-24
2023/07/24 08:53:36;;;;;;;;;;;;;;;31.86;47.48;100149.78;5107622;28;20019;-23
2023/07/24 08:56:09;;;;;;;12.45;9.82;;;;;;;31.83;46.66;100144.97;5106694;27;19915;-23
2023/07/24 08:58:35;;;;;;;11.77;9.38;;;;;;;32.03;45.84;100137.53;5107167;28;20028;-24
2023/07/24 09:01:02;;;;;;;13.60;8.50;;;;;;;31.95;44.50;100135.75;5106172;27;20474;-23
2023/07/24 09:03:35;;;;;;;11.35;9.05;;;;;;;32.11;42.52;100139.28;5105153;28;20261;-24
2023/07/24 09:06:04;;;;;;;12.27;8.82;;;;;;;32.54;43.12;100128.28;5106132;28;20044;-25
2023/07/24 09:08:31;;;;;;;14.48;10.68;;;;;;;32.38;46.96;100129.16;5106134;28;20758;-23
2023/07/24 09:10:56;;;;;;;12.48;10.95;;;;;;;31.99;45.27;100131.13;5105436;28;20428;-23
2023/07/24 09:13:22;;;;;;;13.90;10.48;;;;;;;32.41;45.98;100114.66;5105773;27;20020;-24
2023/07/24 09:15:47;;;;;;;12.35;10.00;;;;;;;32.22;43.47;100128.44;5105973;28;20036;-23
2023/07/24 09:18:13;;;;;;;14.65;10.77;;;;;;;32.59;43.58;100130.75;5106248;28;20012;-23
2023/07/24 09:20:40;;;;;;;10.85;9.13;;;;;;;32.55;41.32;100121.59;5106312;28;20100;-24
2023/07/24 09:23:08;;;;;;;11.05;8.13;;;;;;;32.32;38.41;100130.63;5106046;28;20032;-24
2023/07/24 09:25:34;;;;;;;9.38;7.53;;;;;;;32.25;38.81;100127.72;5106450;28;20024;-23
2023/07/24 09:28:08;;;;;;;10.60;7.72;;;;;;;32.23;39.69;100124.53;5105870;28;20031;-23
2023/07/24 09:30:34;;;;;;;11.25;8.18;;;;;;;32.51;39.88;100120.72;5106013;28;20116;-23
2023/07/24 09:32:59;;;;;;;11.00;8.32;;;;;;;32.88;37.72;100120.22;5105819;28;20175;-23
2023/07/24 09:35:27;;;;;;;16.58;12.88;;;;;;;33.01;39.23;100114.13;5105154;28;20020;-23
2023/07/24 09:38:09;;;;;;;12.68;9.23;;;;;;;33.19;40.71;100108.91;5106053;28;20030;-23
2023/07/24 09:40:45;;;;;;;11.57;8.73;;;;;;;33.21;38.93;100112.09;5105536;28;20039;-23
2023/07/24 09:43:19;;;;;;;12.93;8.93;;;;;;;33.29;39.41;100106.69;5106024;28;20016;-23
2023/07/24 09:45:48;;;;;;;12.07;9.75;;;;;;;33.50;39.90;100101.47;5105643;28;20019;-23
2023/07/24 09:48:20;;;;;;;13.88;9.65;;;;;;;33.60;38.58;100089.75;5105354;28;20123;-24
2023/07/24 09:50:47;;;;;;;12.82;9.38;;;;;;;33.94;37.44;100092.59;5105945;28;20023;-23
2023/07/24 09:53:18;;;;;;;;;;;;;;;33.91;36.39;100093.31;5105933;28;20032;-24
2023/07/24 09:56:04;;;;;;;12.48;9.65;;;;;;;33.91;37.56;100082.25;5105246;28;19914;-23
2023/07/24 09:58:33;;;;;;;12.00;9.25;;;;;;;33.67;35.87;100085.50;5105347;28;20030;-23
2023/07/24 10:00:59;;;;;;;11.13;8.57;;;;;;;33.80;36.47;100075.81;5105428;28;20085;-24
2023/07/24 10:03:28;;;;;;;10.63;9.00;;;;;;;34.11;35.17;100077.34;5105271;28;20110;-23
2023/07/24 10:05:54;;;;;;;10.25;8.35;;;;;;;34.10;35.52;100067.44;5105338;28;20035;-23
2023/07/24 10:08:21;;;;;;;11.27;9.02;;;;;;;34.71;34.27;100065.31;5105493;28;20084;-23
2023/07/24 10:10:50;;;;;;;10.35;8.20;;;;;;;34.77;32.82;100066.56;5105187;28;20407;-23
2023/07/24 10:13:17;;;;;;;10.95;7.90;;;;;;;34.21;32.73;100056.53;5105445;28;20053;-23
2023/07/24 10:15:48;;;;;;;11.68;8.32;;;;;;;34.42;34.64;100051.19;5105487;28;20046;-23
2023/07/24 10:18:16;;;;;;;11.95;8.02;;;;;;;34.73;32.49;100043.56;5104732;28;20027;-25
2023/07/24 10:20:42;;;;;;;12.38;8.70;;;;;;;34.79;33.37;100035.72;5105382;28;20035;-23
2023/07/24 10:23:15;;;;;;;9.48;7.25;;;;;;;35.19;31.19;100047.91;5104722;28;20165;-26
2023/07/24 10:25:46;;;;;;;9.50;7.72;;;;;;;34.88;31.11;100044.50;5105103;28;20077;-24
2023/07/24 10:28:12;;;;;;;9.57;7.78;;;;;;;34.92;31.80;100036.19;5104987;28;20533;-23
2023/07/24 10:30:39;;;;;;;11.50;7.10;;;;;;;35.27;28.99;100040.38;5105172;28;20027;-23
2023/07/24 10:33:06;;;;;;;11.55;8.25;;;;;;;35.29;29.88;100046.34;5105517;28;20028;-23
2023/07/24 10:35:51;;;;;;;9.30;6.93;;;;;;;35.79;29.18;100041.06;5105178;28;20042;-23
2023/07/24 10:38:17;;;;;;;10.90;6.85;;;;;;;35.80;27.88;100040.69;5105124;28;20024;-23
2023/07/24 10:40:45;;;;;;;9.20;6.70;;;;;;;35.80;26.42;100026.00;5104493;28;20448;-23
2023/07/24 10:43:18;;;;;;;8.95;6.38;;;;;;;35.31;25.25;100032.88;5100432;28;20031;-24
2023/07/24 10:45:48;;;;;;;7.60;5.78;;;;;;;35.71;24.02;100039.44;5104509;28;20027;-24
2023/07/24 10:48:15;;;;;;;8.45;5.80;;;;;;;35.83;24.19;100028.00;5104402;28;20015;-26
2023/07/24 10:50:44;;;;;;;8.77;5.35;;;;;;;36.22;23.91;100013.44;5104605;28;20027;-23
2023/07/24 10:53:13;;;;;;;9.82;6.15;;;;;;;36.26;23.07;100014.22;5101671;28;20028;-23
2023/07/24 10:55:39;;;;;;;9.43;6.82;;;;;;;36.56;24.36;100004.72;5104048;28;20031;-23
2023/07/24 10:58:06;;;;;;;8.20;5.80;;;;;;;36.58;22.40;100016.22;5104252;28;20024;-24
2023/07/24 11:00:31;;;;;;;8.63;5.82;;;;;;;35.97;22.43;100005.81;5104337;28;20736;-22
2023/07/24 11:02:57;;;;;;;9.25;6.30;;;;;;;35.87;25.23;99997.50;5104627;28;20059;-23
2023/07/24 11:05:23;;;;;;;8.93;6.40;;;;;;;36.20;24.96;99990.81;5104453;28;20119;-23
2023/07/24 11:07:49;;;;;;;8.57;6.78;;;;;;;36.38;23.76;99988.84;5104395;28;20085;-25
2023/07/24 11:10:18;;;;;;;9.20;6.25;;;;;;;36.73;23.39;99990.03;5104757;28;20030;-24
2023/07/24 11:12:44;;;;;;;9.38;7.32;;;;;;;36.84;23.81;99978.91;5104484;28;20073;-23
2023/07/24 11:15:10;;;;;;;10.90;7.10;;;;;;;37.03;22.63;99977.69;5104827;28;20036;-25
2023/07/24 11:17:40;;;;;;;9.18;6.30;;;;;;;36.86;22.72;99970.16;5104119;28;20031;-24
2023/07/24 11:20:13;;;;;;;12.35;6.22;;;;;;;36.91;22.87;99970.56;5103647;28;20147;-23
2023/07/24 11:22:40;;;;;;;8.60;6.45;;;;;;;36.60;22.52;99955.50;5104638;28;20058;-24
2023/07/24 11:25:06;;;;;;;8.73;6.07;;;;;;;37.10;21.44;99962.94;5104183;28;20041;-23
2023/07/24 11:27:35;;;;;;;9.77;6.40;;;;;;;37.42;21.46;99959.28;5104553;28;20499;-23
2023/07/24 11:30:01;;;;;;;8.52;5.85;;;;;;;37.53;20.39;99954.44;5104398;28;20035;-24
2023/07/24 11:32:26;;;;;;;7.82;5.82;;;;;;;37.78;20.38;99951.53;5104190;28;20028;-23
2023/07/24 11:34:55;;;;;;;8.10;6.22;;;;;;;38.02;20.64;99954.56;5104610;28;20028;-23
2023/07/24 11:37:20;;;;;;;9.63;6.50;;;;;;;38.02;20.09;99957.34;5103930;28;20039;-24
2023/07/24 11:40:19;;;;;;;11.18;6.70;;;;;;;37.50;21.20;99938.59;5103910;28;20416;-25
2023/07/24 11:42:49;;;;;;;10.07;7.30;;;;;;;38.15;21.07;99941.78;5104434;28;20027;-26
2023/07/24 11:45:14;;;;;;;9.63;7.00;;;;;;;37.69;21.00;99942.88;5104067;28;20030;-24
2023/07/24 11:47:50;;;;;;;9.40;6.57;;;;;;;37.77;21.56;99931.28;5104319;28;20016;-24
2023/07/24 11:50:17;;;;;;;10.73;7.63;;;;;;;37.54;22.00;99937.34;5103802;28;20027;-29
2023/07/24 11:52:51;;;;;;;11.40;7.65;;;;;;;37.68;21.56;99922.59;5104334;28;20024;-24
2023/07/24 11:55:19;;;;;;;9.82;7.43;;;;;;;38.21;19.93;99923.44;5104290;28;20515;-24
2023/07/24 11:58:04;;;;;;;10.68;7.32;;;;;;;37.62;21.21;99917.84;5104244;28;20027;-24
2023/07/24 12:00:35;;;;;;;10.50;7.43;;;;;;;38.24;21.74;99913.44;5106710;28;20048;-24